createdAt,value
2018-08-18T00:05:06.625Z,13.9
2018-08-18T00:10:36.765Z,13.9
2018-08-18T00:16:00.608Z,13.8
2018-08-18T00:21:35.219Z,13.8
2018-08-18T00:26:59.814Z,13.8
2018-08-18T00:32:28.659Z,13.8
2018-08-18T00:37:58.807Z,13.7
2018-08-18T00:43:32.248Z,13.7
2018-08-18T00:49:01.029Z,13.7
2018-08-18T00:54:24.780Z,13.7
2018-08-18T00:59:53.600Z,13.6
2018-08-18T01:05:22.372Z,13.6
2018-08-18T01:10:51.201Z,13.6
2018-08-18T01:16:20.921Z,13.5
2018-08-18T01:21:50.203Z,13.5
2018-08-18T01:27:18.423Z,13.5
2018-08-18T01:32:47.205Z,13.5
2018-08-18T01:38:16.438Z,13.5
2018-08-18T01:43:44.887Z,13.5
2018-08-18T01:49:19.736Z,13.5
2018-08-18T01:54:44.814Z,13.5
2018-08-18T02:00:19.079Z,13.6
2018-08-18T02:05:44.055Z,13.6
2018-08-18T02:11:13.622Z,13.6
2018-08-18T02:16:42.622Z,13.7
2018-08-18T02:22:12.626Z,13.7
2018-08-18T02:27:40.966Z,13.7
2018-08-18T02:33:15.759Z,13.7
2018-08-18T02:38:39.535Z,13.7
2018-08-18T02:44:09.607Z,13.7
2018-08-18T02:49:38.350Z,13.7
2018-08-18T02:55:07.109Z,13.6
2018-08-18T03:00:36.626Z,13.6
2018-08-18T03:06:06.413Z,13.5
2018-08-18T03:11:36.176Z,13.5
2018-08-18T03:17:05.023Z,13.4
2018-08-18T03:22:34.708Z,13.4
2018-08-18T03:28:08.564Z,13.4
2018-08-18T03:33:32.300Z,13.4
2018-08-18T03:39:02.036Z,13.4
2018-08-18T03:44:31.250Z,13.4
2018-08-18T03:50:00.879Z,13.4
2018-08-18T03:55:34.212Z,13.4
2018-08-18T04:00:58.976Z,13.4
2018-08-18T04:06:32.966Z,13.3
2018-08-18T04:11:57.765Z,13.2
2018-08-18T04:17:26.194Z,13.2
2018-08-18T04:22:54.886Z,13.2
2018-08-18T04:28:23.656Z,13.2
2018-08-18T04:33:58.401Z,13.1
2018-08-18T04:39:22.136Z,13.1
2018-08-18T04:44:50.821Z,13.1
2018-08-18T04:55:49.895Z,13.1
2018-08-18T05:01:18.294Z,13.2
2018-08-18T05:06:46.755Z,13.2
2018-08-18T05:12:20.644Z,13.3
2018-08-18T05:17:49.434Z,13.5
2018-08-18T05:23:14.032Z,13.6
2018-08-18T05:28:42.956Z,13.8
2018-08-18T05:34:17.687Z,13.9
2018-08-18T05:39:42.701Z,13.9
2018-08-18T05:45:12.753Z,14
2018-08-18T05:50:42.532Z,14.2
2018-08-18T05:56:12.116Z,14.3
2018-08-18T06:01:46.020Z,14.5
2018-08-18T06:07:14.975Z,14.6
2018-08-18T06:12:39.601Z,14.8
2018-08-18T06:18:08.588Z,14.9
2018-08-18T06:23:38.727Z,15
2018-08-18T06:29:08.003Z,15.1
2018-08-18T06:34:41.826Z,15.3
2018-08-18T06:40:10.412Z,15.4
2018-08-18T06:45:36.089Z,15.5
2018-08-18T06:51:04.569Z,15.6
2018-08-18T06:56:33.374Z,15.7
2018-08-18T07:02:02.487Z,15.8
2018-08-18T07:07:36.774Z,15.9
2018-08-18T07:13:06.422Z,16
2018-08-18T07:18:36.490Z,16.1
2018-08-18T07:24:01.828Z,16.3
2018-08-18T07:29:30.928Z,16.6
2018-08-18T07:35:00.787Z,16.9
2018-08-18T07:40:30.195Z,17.3
2018-08-18T07:46:05.299Z,17.6
2018-08-18T07:51:29.562Z,17.6
2018-08-18T07:56:58.606Z,17.5
2018-08-18T08:02:29.055Z,17.4
2018-08-18T08:08:03.960Z,17.4
2018-08-18T08:13:29.126Z,17.4
2018-08-18T08:18:59.524Z,17.4
2018-08-18T08:24:28.611Z,17.4
2018-08-18T08:30:04.518Z,17.5
2018-08-18T08:35:27.975Z,17.7
2018-08-18T08:41:02.229Z,17.8
2018-08-18T08:46:31.747Z,18
2018-08-18T08:51:57.221Z,18.2
2018-08-18T08:57:26.143Z,18.5
2018-08-18T09:02:56.868Z,18.7
2018-08-18T09:08:26.781Z,18.9
2018-08-18T09:14:01.191Z,19.1
2018-08-18T09:19:30.575Z,19.2
2018-08-18T09:25:01.091Z,19.2
2018-08-18T09:30:26.389Z,19.2
2018-08-18T09:36:02.623Z,19.1
2018-08-18T09:41:27.425Z,19
2018-08-18T09:46:57.572Z,19.1
2018-08-18T09:52:33.554Z,19.2
2018-08-18T09:58:03.801Z,19.4
2018-08-18T10:03:28.838Z,19.5
2018-08-18T10:08:59.376Z,19.8
2018-08-18T10:14:34.506Z,19.9
2018-08-18T10:19:59.033Z,20
2018-08-18T10:25:33.918Z,20
2018-08-18T10:31:04.360Z,19.8
2018-08-18T10:36:33.737Z,19.6
2018-08-18T10:41:58.224Z,19.4
2018-08-18T10:47:32.641Z,19.4
2018-08-18T10:53:02.329Z,19.4
2018-08-18T10:58:28.098Z,19.3
2018-08-18T11:04:02.233Z,19.4
2018-08-18T11:09:32.329Z,19.4
2018-08-18T11:14:56.762Z,19.5
2018-08-18T11:20:26.371Z,19.5
2018-08-18T11:25:55.620Z,19.5
2018-08-18T11:31:30.112Z,19.5
2018-08-18T11:37:00.529Z,19.4
2018-08-18T11:42:24.919Z,19.4
2018-08-18T11:47:55.378Z,19.4
2018-08-18T11:53:30.803Z,19.4
2018-08-18T11:58:55.285Z,19.5
2018-08-18T12:04:24.683Z,19.7
2018-08-18T12:09:59.273Z,19.8
2018-08-18T12:15:30.341Z,20
2018-08-18T12:20:55.280Z,20
2018-08-18T12:26:25.785Z,20
2018-08-18T12:32:01.558Z,19.9
2018-08-18T12:37:30.992Z,19.9
2018-08-18T12:42:55.318Z,19.9
2018-08-18T12:48:31.441Z,20
2018-08-18T12:53:55.289Z,20
2018-08-18T12:59:26.071Z,20
2018-08-18T13:04:55.382Z,20.1
2018-08-18T13:10:25.821Z,20.1
2018-08-18T13:16:01.617Z,20.1
2018-08-18T13:21:32.296Z,20.1
2018-08-18T13:26:57.532Z,20
2018-08-18T13:32:27.158Z,20
2018-08-18T13:37:56.502Z,19.9
2018-08-18T13:43:25.901Z,20
2018-08-18T13:49:00.513Z,20.1
2018-08-18T13:54:25.047Z,20.1
2018-08-18T13:59:54.747Z,20
2018-08-18T14:05:23.959Z,19.8
2018-08-18T14:10:53.564Z,19.7
2018-08-18T14:16:29.163Z,19.7
2018-08-18T14:21:53.573Z,19.7
2018-08-18T14:27:23.121Z,19.8
2018-08-18T14:32:52.426Z,19.9
2018-08-18T14:38:28.096Z,19.9
2018-08-18T14:43:51.350Z,19.8
2018-08-18T14:49:21.782Z,19.7
2018-08-18T14:54:51.282Z,19.6
2018-08-18T15:00:21.182Z,19.5
2018-08-18T15:05:50.148Z,19.5
2018-08-18T15:11:24.512Z,19.5
2018-08-18T15:16:50.151Z,19.5
2018-08-18T15:22:20.413Z,19.5
2018-08-18T15:27:51.145Z,19.5
2018-08-18T15:33:20.325Z,19.6
2018-08-18T15:38:50.859Z,19.6
2018-08-18T15:44:20.483Z,19.6
2018-08-18T15:49:50.946Z,19.6
2018-08-18T15:55:21.072Z,19.5
2018-08-18T16:00:56.583Z,19.5
2018-08-18T16:06:22.007Z,19.5
2018-08-18T16:11:57.683Z,19.5
2018-08-18T16:17:22.273Z,19.5
2018-08-18T16:22:52.310Z,19.5
2018-08-18T16:28:21.704Z,19.5
2018-08-18T16:33:57.607Z,19.5
2018-08-18T16:39:21.565Z,19.4
2018-08-18T16:44:51.114Z,19.3
2018-08-18T16:50:20.443Z,19.3
2018-08-18T16:55:56.060Z,19.2
2018-08-18T17:01:20.288Z,19.2
2018-08-18T17:06:49.616Z,19.2
2018-08-18T17:12:20.067Z,19.1
2018-08-18T17:17:49.700Z,19.1
2018-08-18T17:23:18.790Z,19.1
2018-08-18T17:28:49.487Z,19
2018-08-18T17:34:18.629Z,19
2018-08-18T17:39:47.977Z,19
2018-08-18T17:45:18.590Z,18.9
2018-08-18T17:50:52.698Z,18.9
2018-08-18T17:56:23.054Z,18.9
2018-08-18T18:01:52.447Z,18.9
2018-08-18T18:07:23.082Z,18.9
2018-08-18T18:12:52.153Z,18.8
2018-08-18T18:18:17.876Z,18.8
2018-08-18T18:23:53.357Z,18.8
2018-08-18T18:29:17.721Z,18.8
2018-08-18T18:34:47.229Z,18.7
2018-08-18T18:40:17.198Z,18.7
2018-08-18T18:45:46.387Z,18.7
2018-08-18T18:51:20.741Z,18.6
2018-08-18T18:56:51.040Z,18.6
2018-08-18T19:02:21.856Z,18.6
2018-08-18T19:07:45.963Z,18.6
2018-08-18T19:13:14.920Z,18.5
2018-08-18T19:18:45.543Z,18.5
2018-08-18T19:24:21.084Z,18.4
2018-08-18T19:29:46.055Z,18.4
2018-08-18T19:35:16.207Z,18.3
2018-08-18T19:40:50.683Z,18.3
2018-08-18T19:46:15.249Z,18.2
2018-08-18T19:51:49.940Z,18.2
2018-08-18T19:57:13.580Z,18.2
2018-08-18T20:02:42.863Z,18.1
2018-08-18T20:08:16.959Z,18.1
2018-08-18T20:13:47.402Z,18.1
2018-08-18T20:19:11.828Z,18
2018-08-18T20:24:40.785Z,18
2018-08-18T20:30:10.979Z,18
2018-08-18T20:35:45.623Z,18
2018-08-18T20:41:10.774Z,17.9
2018-08-18T20:46:40.732Z,17.9
2018-08-18T20:52:09.995Z,17.9
2018-08-18T20:57:39.218Z,17.8
2018-08-18T21:03:08.447Z,17.8
2018-08-18T21:08:38.754Z,17.7
2018-08-18T21:14:13.187Z,17.7
2018-08-18T21:19:37.095Z,17.6
2018-08-18T21:25:07.182Z,17.6
2018-08-18T21:30:40.579Z,17.6
2018-08-18T21:36:04.776Z,17.5
2018-08-18T21:41:34.262Z,17.5
2018-08-18T21:47:04.118Z,17.5
2018-08-18T21:52:33.359Z,17.4
2018-08-18T21:58:02.812Z,17.4
2018-08-18T22:03:31.710Z,17.3
2018-08-18T22:09:05.882Z,17.3
2018-08-18T22:14:35.073Z,17.3
2018-08-18T22:19:59.146Z,17.2
2018-08-18T22:25:29.409Z,17.2
2018-08-18T22:31:00.138Z,17.2
2018-08-18T22:36:34.919Z,17.2
2018-08-18T22:42:03.798Z,17.2
2018-08-18T22:47:27.992Z,17.2
2018-08-18T22:52:58.485Z,17.2
2018-08-18T22:58:32.579Z,17.2
2018-08-18T23:03:56.475Z,17.3
2018-08-18T23:09:26.748Z,17.3
2018-08-18T23:15:00.851Z,17.3
2018-08-18T23:20:30.023Z,17.3
2018-08-18T23:25:59.144Z,17.3
2018-08-18T23:31:23.414Z,17.3
2018-08-18T23:36:58.027Z,17.3
2018-08-18T23:42:21.691Z,17.3
2018-08-18T23:47:51.823Z,17.3
2018-08-18T23:53:22.099Z,17.3
2018-08-18T23:58:56.468Z,17.3
